createdAt,value
2019-05-02T00:01:30.226Z,8.35
2019-05-02T00:04:00.138Z,9.35
2019-05-02T00:06:31.657Z,9.43
2019-05-02T00:09:04.050Z,15.80
2019-05-02T00:11:35.637Z,12.82
2019-05-02T00:14:06.125Z,13.58
2019-05-02T00:16:37.387Z,18.92
2019-05-02T00:19:09.086Z,12.43
2019-05-02T00:21:42.711Z,14.30
2019-05-02T00:24:11.911Z,21.05
2019-05-02T00:26:41.730Z,21.85
2019-05-02T00:29:11.804Z,19.02
2019-05-02T00:31:46.725Z,15.72
2019-05-02T00:34:13.548Z,20.05
2019-05-02T00:36:43.440Z,21.75
2019-05-02T00:39:15.074Z,18.45
2019-05-02T00:41:45.054Z,21.35
2019-05-02T00:44:14.915Z,27.32
2019-05-02T00:46:44.816Z,21.23
2019-05-02T00:49:14.555Z,19.90
2019-05-02T00:51:44.431Z,23.52
2019-05-02T00:54:14.260Z,19.62
2019-05-02T00:56:45.298Z,19.27
2019-05-02T00:59:15.257Z,23.10
2019-05-02T01:01:46.686Z,21.70
2019-05-02T01:04:18.148Z,24.07
2019-05-02T01:06:49.420Z,22.07
2019-05-02T01:09:19.350Z,22.77
2019-05-02T01:11:49.685Z,23.27
2019-05-02T01:14:19.514Z,25.72
2019-05-02T01:16:53.878Z,27.77
2019-05-02T01:19:21.028Z,22.30
2019-05-02T01:21:50.883Z,26.45
2019-05-02T01:24:20.748Z,22.87
2019-05-02T01:26:52.174Z,21.80
2019-05-02T01:29:24.826Z,22.63
2019-05-02T01:31:56.780Z,23.67
2019-05-02T01:34:28.140Z,21.85
2019-05-02T01:36:59.474Z,27.40
2019-05-02T01:39:29.181Z,23.00
2019-05-02T01:42:00.061Z,24.27
2019-05-02T01:44:31.223Z,24.82
2019-05-02T01:47:01.814Z,26.55
2019-05-02T01:49:31.710Z,26.70
2019-05-02T01:52:01.420Z,24.87
2019-05-02T01:54:31.257Z,24.85
2019-05-02T01:57:04.041Z,31.20
2019-05-02T01:59:33.897Z,26.57
2019-05-02T02:02:04.300Z,24.40
2019-05-02T02:04:34.591Z,25.30
2019-05-02T02:07:05.024Z,25.23
2019-05-02T02:09:38.897Z,26.02
2019-05-02T02:12:09.920Z,24.85
2019-05-02T02:14:37.740Z,26.68
2019-05-02T02:17:10.183Z,26.45
2019-05-02T02:19:40.750Z,25.43
2019-05-02T02:22:12.233Z,25.65
2019-05-02T02:24:43.635Z,24.57
2019-05-02T02:27:13.553Z,30.75
2019-05-02T02:29:43.935Z,27.00
2019-05-02T02:32:20.213Z,26.73
2019-05-02T02:34:46.539Z,23.50
2019-05-02T02:37:16.392Z,33.78
2019-05-02T02:39:48.714Z,29.12
2019-05-02T02:42:17.404Z,28.42
2019-05-02T02:44:48.902Z,28.30
2019-05-02T02:47:20.918Z,31.35
2019-05-02T02:49:55.751Z,31.35
2019-05-02T02:52:21.565Z,26.33
2019-05-02T02:54:51.405Z,29.77
2019-05-02T02:57:26.314Z,29.85
2019-05-02T02:59:52.756Z,28.37
2019-05-02T03:02:22.655Z,28.57
2019-05-02T03:04:52.696Z,28.52
2019-05-02T03:07:26.212Z,27.60
2019-05-02T03:09:59.731Z,27.58
2019-05-02T03:15:20.962Z,27.20
2019-05-02T03:17:47.050Z,29.02
2019-05-02T03:20:17.013Z,25.30
2019-05-02T03:22:46.833Z,27.50
2019-05-02T03:25:18.031Z,26.70
2019-05-02T03:27:48.043Z,24.52
2019-05-02T03:30:32.194Z,24.72
2019-05-02T03:33:02.801Z,20.70
2019-05-02T03:35:40.098Z,21.70
2019-05-02T03:37:53.828Z,20.37
2019-05-02T03:40:23.761Z,18.23
2019-05-02T03:42:53.626Z,18.77
2019-05-02T03:45:23.783Z,20.50
2019-05-02T03:47:54.104Z,18.67
2019-05-02T03:50:31.683Z,21.48
2019-05-02T03:52:55.476Z,17.27
2019-05-02T03:55:30.704Z,18.10
2019-05-02T03:57:57.512Z,18.20
2019-05-02T04:00:27.368Z,18.00
2019-05-02T04:03:00.858Z,15.63
2019-05-02T04:05:33.798Z,20.97
2019-05-02T04:13:10.901Z,14.68
2019-05-02T04:15:40.947Z,14.95
2019-05-02T04:18:15.386Z,17.30
2019-05-02T04:20:43.632Z,16.12
2019-05-02T04:23:14.768Z,16.10
2019-05-02T04:25:45.106Z,16.12
2019-05-02T04:28:14.983Z,19.20
2019-05-02T04:30:45.348Z,17.75
2019-05-02T04:33:16.280Z,17.70
2019-05-02T04:35:46.197Z,20.55
2019-05-02T04:38:21.306Z,21.23
2019-05-02T04:40:49.538Z,23.35
2019-05-02T04:43:19.614Z,25.10
2019-05-02T04:45:56.114Z,22.42
2019-05-02T04:48:20.779Z,21.23
2019-05-02T04:50:51.661Z,21.62
2019-05-02T04:53:25.646Z,18.02
2019-05-02T04:56:01.523Z,21.05
2019-05-02T04:58:31.447Z,20.45
2019-05-02T05:01:01.000Z,22.17
2019-05-02T05:03:28.487Z,21.30
2019-05-02T05:05:59.498Z,24.20
2019-05-02T05:08:31.863Z,20.52
2019-05-02T05:11:01.673Z,22.60
2019-05-02T05:13:31.503Z,26.85
2019-05-02T05:16:02.995Z,20.75
2019-05-02T05:18:32.686Z,27.10
2019-05-02T05:21:02.592Z,21.82
2019-05-02T05:23:34.021Z,23.60
2019-05-02T05:26:04.799Z,27.45
2019-05-02T05:28:35.111Z,26.90
2019-05-02T05:31:07.696Z,22.52
2019-05-02T05:33:37.832Z,24.67
2019-05-02T05:36:08.249Z,26.12
2019-05-02T05:38:40.691Z,25.80
2019-05-02T05:41:13.201Z,23.65
2019-05-02T05:43:44.772Z,26.75
2019-05-02T05:46:13.349Z,23.50
2019-05-02T05:48:43.206Z,23.18
2019-05-02T05:51:17.022Z,19.67
2019-05-02T05:53:44.453Z,26.02
2019-05-02T05:56:14.275Z,22.75
2019-05-02T05:58:48.160Z,21.75
2019-05-02T06:01:17.695Z,23.42
2019-05-02T06:03:47.426Z,23.27
2019-05-02T06:06:22.368Z,21.30
2019-05-02T06:08:49.172Z,22.07
2019-05-02T06:11:21.767Z,22.80
2019-05-02T06:13:51.805Z,21.43
2019-05-02T06:16:21.837Z,22.00
2019-05-02T06:18:52.780Z,22.62
2019-05-02T06:21:22.671Z,21.05
2019-05-02T06:23:52.490Z,21.52
2019-05-02T06:26:22.309Z,21.70
2019-05-02T06:28:52.216Z,21.87
2019-05-02T06:31:22.083Z,20.75
2019-05-02T06:33:51.802Z,22.27
2019-05-02T06:36:22.155Z,18.27
2019-05-02T06:38:56.183Z,21.40
2019-05-02T06:41:24.401Z,23.50
2019-05-02T06:43:55.115Z,21.70
2019-05-02T06:46:27.706Z,23.15
2019-05-02T06:48:56.554Z,21.27
2019-05-02T06:51:26.255Z,21.73
2019-05-02T06:53:56.194Z,18.27
2019-05-02T06:56:27.109Z,20.70
2019-05-02T06:58:57.970Z,20.17
2019-05-02T07:01:27.892Z,22.00
2019-05-02T07:03:57.629Z,19.50
2019-05-02T07:06:27.841Z,19.27
2019-05-02T07:08:59.640Z,20.20
2019-05-02T07:11:33.223Z,20.10
2019-05-02T07:14:12.397Z,21.27
2019-05-02T07:16:38.401Z,18.05
2019-05-02T07:19:07.115Z,17.52
2019-05-02T07:21:36.951Z,24.27
2019-05-02T07:24:06.656Z,21.45
2019-05-02T07:26:36.478Z,20.95
2019-05-02T07:29:06.291Z,26.00
2019-05-02T07:31:35.963Z,21.73
2019-05-02T07:34:08.027Z,21.55
2019-05-02T07:36:38.367Z,23.07
2019-05-02T07:39:10.597Z,24.47
2019-05-02T07:44:10.465Z,32.38
2019-05-02T07:46:51.230Z,30.45
2019-05-02T07:49:11.784Z,30.60
2019-05-02T07:51:42.738Z,31.40
2019-05-02T07:54:12.488Z,34.00
2019-05-02T07:56:42.366Z,34.03
2019-05-02T07:59:12.128Z,36.68
2019-05-02T08:01:44.880Z,40.10
2019-05-02T08:04:13.579Z,43.73
2019-05-02T08:06:46.096Z,36.73
2019-05-02T08:09:16.015Z,39.40
2019-05-02T08:11:46.008Z,41.08
2019-05-02T08:14:15.962Z,46.77
2019-05-02T08:16:49.135Z,43.35
2019-05-02T08:19:19.041Z,46.18
2019-05-02T08:21:48.920Z,41.33
2019-05-02T08:24:18.796Z,38.13
2019-05-02T08:26:53.383Z,41.95
2019-05-02T08:29:26.918Z,39.38
2019-05-02T08:31:53.056Z,43.00
2019-05-02T08:34:24.472Z,35.75
2019-05-02T08:36:54.084Z,34.83
2019-05-02T08:39:26.024Z,30.55
2019-05-02T08:41:56.427Z,30.55
2019-05-02T08:44:27.059Z,24.87
2019-05-02T08:46:56.903Z,24.40
2019-05-02T08:49:26.785Z,24.98
2019-05-02T08:51:56.712Z,24.82
2019-05-02T08:54:28.081Z,23.47
2019-05-02T08:57:00.597Z,24.72
2019-05-02T08:59:30.532Z,19.30
2019-05-02T09:02:00.477Z,17.62
2019-05-02T09:04:30.709Z,21.33
2019-05-02T09:07:00.894Z,19.48
2019-05-02T09:09:31.876Z,20.55
2019-05-02T09:12:11.974Z,18.90
2019-05-02T09:14:33.271Z,23.83
2019-05-02T09:17:08.574Z,11.63
2019-05-02T09:19:35.605Z,11.73
2019-05-02T09:22:07.730Z,12.45
2019-05-02T09:24:37.040Z,14.20
2019-05-02T09:27:06.962Z,9.70
2019-05-02T09:29:37.445Z,7.70
2019-05-02T09:32:08.281Z,39.13
2019-05-02T09:34:38.135Z,23.12
2019-05-02T09:37:07.955Z,9.43
2019-05-02T09:39:37.762Z,9.30
2019-05-02T09:42:12.405Z,7.70
2019-05-02T09:44:39.123Z,7.65
2019-05-02T09:47:12.731Z,7.47
2019-05-02T09:49:48.930Z,5.55
2019-05-02T09:52:13.727Z,6.42
2019-05-02T09:54:46.135Z,6.35
2019-05-02T09:57:14.807Z,6.97
2019-05-02T09:59:50.271Z,9.65
2019-05-02T10:02:16.252Z,10.55
2019-05-02T10:04:46.160Z,17.40
2019-05-02T10:07:16.031Z,18.35
2019-05-02T10:09:45.964Z,17.98
2019-05-02T10:12:15.871Z,14.13
2019-05-02T10:14:45.786Z,15.63
2019-05-02T10:17:18.420Z,16.57
2019-05-02T10:19:48.928Z,14.07
2019-05-02T10:22:18.736Z,13.10
2019-05-02T10:25:03.193Z,15.20
2019-05-02T10:27:33.858Z,17.50
2019-05-02T10:30:11.741Z,16.10
2019-05-02T10:32:37.727Z,15.70
2019-05-02T10:35:09.844Z,14.47
2019-05-02T10:40:13.441Z,15.80
2019-05-02T10:42:42.034Z,11.18
2019-05-02T10:45:17.869Z,13.53
2019-05-02T10:47:47.636Z,24.15
2019-05-02T10:50:19.088Z,14.68
2019-05-02T10:52:49.046Z,13.48
2019-05-02T10:55:21.681Z,14.70
2019-05-02T10:57:52.492Z,18.45
2019-05-02T11:00:24.694Z,14.03
2019-05-02T11:02:56.147Z,10.68
2019-05-02T11:05:27.242Z,11.97
2019-05-02T11:08:01.472Z,13.13
2019-05-02T11:10:28.528Z,10.93
2019-05-02T11:13:01.450Z,11.53
2019-05-02T11:15:33.002Z,11.48
2019-05-02T11:18:03.472Z,9.78
2019-05-02T11:20:33.592Z,18.30
2019-05-02T11:23:03.458Z,10.38
2019-05-02T11:25:33.223Z,9.43
2019-05-02T11:28:07.040Z,9.10
2019-05-02T11:30:36.363Z,10.48
2019-05-02T11:33:06.245Z,6.90
2019-05-02T11:35:41.696Z,7.37
2019-05-02T11:38:08.847Z,9.20
2019-05-02T11:40:39.186Z,6.60
2019-05-02T11:43:08.997Z,8.73
2019-05-02T11:45:38.773Z,5.42
2019-05-02T11:48:11.344Z,4.28
2019-05-02T11:50:42.149Z,4.35
2019-05-02T11:53:23.246Z,5.95
2019-05-02T11:55:43.875Z,6.57
2019-05-02T11:58:13.615Z,5.42
2019-05-02T12:00:45.430Z,7.50
2019-05-02T12:03:16.494Z,6.60
2019-05-02T12:05:46.271Z,5.33
2019-05-02T12:08:16.012Z,4.85
2019-05-02T12:10:46.282Z,3.35
2019-05-02T12:13:16.337Z,8.65
2019-05-02T12:15:46.335Z,3.92
2019-05-02T12:18:16.343Z,4.75
2019-05-02T12:20:46.123Z,7.03
2019-05-02T12:23:16.024Z,3.12
2019-05-02T12:25:45.768Z,7.03
2019-05-02T12:28:15.682Z,4.10
2019-05-02T12:30:45.565Z,5.90
2019-05-02T12:33:15.641Z,3.33
2019-05-02T12:35:45.465Z,4.22
2019-05-02T12:38:15.284Z,5.87
2019-05-02T12:40:45.250Z,3.27
2019-05-02T12:43:15.025Z,4.10
2019-05-02T12:45:44.911Z,3.90
2019-05-02T12:48:14.753Z,6.85
2019-05-02T12:50:44.411Z,3.77
2019-05-02T12:53:14.366Z,5.53
2019-05-02T12:55:45.235Z,5.60
2019-05-02T12:58:25.233Z,3.62
2019-05-02T13:00:55.007Z,3.45
2019-05-02T13:03:26.438Z,4.53
2019-05-02T13:05:56.130Z,6.28
2019-05-02T13:08:25.871Z,4.12
2019-05-02T13:11:02.046Z,3.83
2019-05-02T13:13:28.682Z,4.55
2019-05-02T13:16:00.751Z,4.62
2019-05-02T13:18:34.816Z,3.85
2019-05-02T13:21:02.819Z,3.10
2019-05-02T13:23:37.113Z,3.27
2019-05-02T13:26:18.450Z,3.87
2019-05-02T13:28:37.422Z,4.45
2019-05-02T13:31:08.964Z,3.15
2019-05-02T13:33:40.407Z,4.65
2019-05-02T13:36:13.140Z,4.28
2019-05-02T13:38:43.033Z,4.00
2019-05-02T13:41:12.767Z,4.08
2019-05-02T13:43:44.207Z,7.65
2019-05-02T13:46:15.533Z,5.58
2019-05-02T13:48:45.486Z,7.60
2019-05-02T13:51:15.590Z,4.67
2019-05-02T13:53:48.442Z,5.25
2019-05-02T13:56:21.932Z,10.78
2019-05-02T13:58:52.023Z,8.05
2019-05-02T14:01:22.938Z,9.40
2019-05-02T14:03:55.498Z,10.82
2019-05-02T14:06:29.799Z,8.60
2019-05-02T14:08:57.158Z,9.63
2019-05-02T14:11:28.679Z,11.35
2019-05-02T14:13:58.481Z,8.28
2019-05-02T14:16:28.207Z,12.98
2019-05-02T14:18:57.946Z,24.37
2019-05-02T14:21:27.710Z,8.95
2019-05-02T14:23:58.628Z,11.25
2019-05-02T14:26:30.701Z,12.55
2019-05-02T14:28:59.760Z,12.68
2019-05-02T14:31:29.669Z,12.43
2019-05-02T14:34:02.202Z,10.10
2019-05-02T14:36:32.563Z,10.25
2019-05-02T14:39:05.523Z,10.43
2019-05-02T14:41:41.166Z,10.50
2019-05-02T14:44:08.508Z,9.73
2019-05-02T14:46:39.646Z,12.63
2019-05-02T14:49:11.929Z,7.80
2019-05-02T14:51:41.823Z,9.88
2019-05-02T14:54:12.156Z,9.65
2019-05-02T14:59:29.078Z,4.08
2019-05-02T15:02:03.841Z,8.18
2019-05-02T15:04:32.249Z,8.28
2019-05-02T15:07:02.363Z,11.15
2019-05-02T15:09:33.355Z,7.70
2019-05-02T15:12:13.942Z,5.23
2019-05-02T15:14:35.746Z,6.92
2019-05-02T15:17:07.245Z,7.80
2019-05-02T15:19:37.035Z,10.40
2019-05-02T15:22:07.161Z,6.90
2019-05-02T15:24:38.094Z,8.48
2019-05-02T15:27:16.566Z,5.10
2019-05-02T15:29:39.399Z,9.58
2019-05-02T15:32:12.525Z,7.55
2019-05-02T15:34:47.879Z,7.25
2019-05-02T15:37:16.955Z,7.58
2019-05-02T15:42:22.887Z,5.80
2019-05-02T15:44:52.122Z,4.00
2019-05-02T15:47:22.518Z,3.98
2019-05-02T15:49:52.836Z,3.17
2019-05-02T15:52:27.788Z,3.93
2019-05-02T15:55:02.105Z,2.92
2019-05-02T15:57:28.275Z,2.52
2019-05-02T15:59:58.037Z,2.70
2019-05-02T16:02:29.539Z,3.25
2019-05-02T16:05:02.368Z,3.05
2019-05-02T16:07:32.611Z,2.22
2019-05-02T16:10:03.981Z,3.83
2019-05-02T16:12:36.035Z,4.03
2019-05-02T16:15:13.298Z,3.70
2019-05-02T16:17:38.220Z,3.00
2019-05-02T16:20:11.284Z,4.65
2019-05-02T16:22:46.352Z,2.75
2019-05-02T16:25:13.928Z,1.70
2019-05-02T16:27:45.636Z,3.25
2019-05-02T16:30:22.156Z,4.80
2019-05-02T16:32:53.420Z,1.50
2019-05-02T16:35:24.972Z,2.65
2019-05-02T16:37:56.179Z,4.90
2019-05-02T16:40:29.749Z,2.20
2019-05-02T16:42:58.535Z,4.35
2019-05-02T16:45:28.356Z,2.60
2019-05-02T16:48:00.107Z,2.02
2019-05-02T16:50:35.151Z,2.75
2019-05-02T16:53:02.249Z,3.42
2019-05-02T16:55:32.819Z,4.62
2019-05-02T16:58:07.034Z,2.87
2019-05-02T17:00:36.938Z,2.37
2019-05-02T17:03:05.942Z,2.67
2019-05-02T17:05:39.488Z,3.70
2019-05-02T17:08:10.715Z,3.52
2019-05-02T17:10:42.324Z,1.92
2019-05-02T17:13:12.634Z,3.47
2019-05-02T17:15:42.833Z,1.67
2019-05-02T17:18:15.319Z,2.05
2019-05-02T17:20:46.923Z,1.40
2019-05-02T17:23:15.656Z,2.33
2019-05-02T17:25:45.484Z,2.83
2019-05-02T17:28:16.467Z,1.55
2019-05-02T17:30:46.262Z,1.55
2019-05-02T17:33:16.541Z,1.62
2019-05-02T17:35:51.272Z,2.67
2019-05-02T17:38:23.476Z,1.32
2019-05-02T17:40:53.858Z,2.22
2019-05-02T17:43:27.340Z,1.57
2019-05-02T17:45:58.588Z,1.25
2019-05-02T17:48:29.387Z,2.67
2019-05-02T17:51:02.172Z,2.70
2019-05-02T17:53:42.724Z,2.47
2019-05-02T17:56:07.202Z,1.87
2019-05-02T17:58:39.662Z,1.75
2019-05-02T18:01:10.329Z,4.37
2019-05-02T18:03:42.365Z,4.05
2019-05-02T18:06:13.295Z,3.27
2019-05-02T18:08:46.356Z,7.90
2019-05-02T18:11:14.667Z,2.95
2019-05-02T18:13:44.549Z,1.50
2019-05-02T18:16:16.600Z,2.27
2019-05-02T18:18:46.859Z,1.67
2019-05-02T18:21:17.741Z,2.42
2019-05-02T18:23:48.255Z,2.97
2019-05-02T18:26:18.230Z,3.00
2019-05-02T18:28:49.453Z,1.55
2019-05-02T18:31:19.407Z,1.85
2019-05-02T18:33:49.223Z,1.75
2019-05-02T18:36:23.875Z,1.67
2019-05-02T18:38:52.470Z,2.10
2019-05-02T18:41:22.399Z,1.27
2019-05-02T18:43:52.503Z,3.37
2019-05-02T18:46:22.406Z,1.50
2019-05-02T18:48:53.377Z,1.22
2019-05-02T18:51:23.043Z,2.00
2019-05-02T18:53:53.056Z,1.10
2019-05-02T18:56:22.919Z,2.00
2019-05-02T18:58:53.480Z,1.90
2019-05-02T19:01:23.459Z,1.15
2019-05-02T19:03:56.179Z,2.87
2019-05-02T19:06:27.928Z,1.57
2019-05-02T19:08:59.472Z,1.00
2019-05-02T19:11:33.670Z,1.87
2019-05-02T19:14:02.569Z,1.60
2019-05-02T19:16:32.394Z,1.57
2019-05-02T19:19:02.339Z,1.75
2019-05-02T19:21:36.786Z,1.35
2019-05-02T19:24:03.845Z,3.35
2019-05-02T19:26:33.715Z,1.55
2019-05-02T19:29:08.416Z,1.67
2019-05-02T19:31:44.327Z,3.10
2019-05-02T19:34:11.725Z,2.35
2019-05-02T19:36:43.431Z,2.55
2019-05-02T19:39:12.962Z,2.52
2019-05-02T19:41:43.874Z,2.60
2019-05-02T19:44:15.369Z,2.17
2019-05-02T19:46:45.415Z,3.02
2019-05-02T19:49:16.255Z,1.70
2019-05-02T19:51:50.465Z,3.37
2019-05-02T19:54:18.705Z,2.40
2019-05-02T19:56:48.445Z,1.72
2019-05-02T19:59:22.437Z,2.37
2019-05-02T20:01:49.587Z,1.67
2019-05-02T20:04:19.465Z,1.82
2019-05-02T20:06:49.247Z,1.80
2019-05-02T20:09:19.271Z,2.67
2019-05-02T20:11:49.271Z,1.65
2019-05-02T20:14:21.697Z,2.45
2019-05-02T20:16:54.180Z,3.27
2019-05-02T20:21:57.145Z,3.17
2019-05-02T20:24:29.095Z,3.65
2019-05-02T20:26:59.084Z,4.42
2019-05-02T20:29:28.725Z,4.53
2019-05-02T20:31:58.687Z,8.53
2019-05-02T20:34:28.909Z,5.58
2019-05-02T20:36:58.771Z,3.27
2019-05-02T20:39:28.495Z,4.08
2019-05-02T20:41:58.528Z,6.12
2019-05-02T20:44:28.433Z,6.85
2019-05-02T20:46:58.046Z,3.87
2019-05-02T20:49:27.992Z,1.90
2019-05-02T20:51:57.827Z,2.83
2019-05-02T20:54:27.766Z,4.47
2019-05-02T20:56:57.679Z,6.22
2019-05-02T20:59:27.564Z,3.05
2019-05-02T21:01:57.706Z,2.35
2019-05-02T21:04:27.396Z,3.55
2019-05-02T21:06:58.703Z,2.87
2019-05-02T21:09:32.294Z,2.30
2019-05-02T21:12:03.983Z,2.45
2019-05-02T21:14:35.040Z,1.90
2019-05-02T21:17:05.283Z,2.50
2019-05-02T21:19:35.168Z,2.47
2019-05-02T21:22:07.981Z,3.22
2019-05-02T21:24:37.779Z,2.30
2019-05-02T21:27:07.624Z,2.47
2019-05-02T21:29:37.531Z,1.90
2019-05-02T21:32:07.459Z,2.70
2019-05-02T21:34:37.234Z,2.52
2019-05-02T21:37:07.108Z,2.12
2019-05-02T21:39:37.111Z,2.70
2019-05-02T21:42:07.980Z,4.45
2019-05-02T21:44:39.560Z,1.55
2019-05-02T21:47:09.380Z,1.52
2019-05-02T21:49:42.868Z,2.75
2019-05-02T21:52:13.843Z,3.37
2019-05-02T21:54:45.239Z,1.23
2019-05-02T21:57:16.386Z,3.58
2019-05-02T21:59:46.145Z,1.77
2019-05-02T22:02:17.657Z,1.75
2019-05-02T22:04:47.600Z,3.12
2019-05-02T22:07:17.339Z,1.70
2019-05-02T22:09:47.179Z,1.50
2019-05-02T22:12:17.093Z,2.52
2019-05-02T22:14:47.015Z,2.27
2019-05-02T22:17:17.216Z,1.80
2019-05-02T22:19:48.143Z,1.85
2019-05-02T22:22:18.044Z,3.08
2019-05-02T22:24:47.778Z,3.00
2019-05-02T22:27:17.594Z,4.97
2019-05-02T22:29:47.431Z,2.10
2019-05-02T22:32:17.327Z,1.72
2019-05-02T22:34:47.300Z,1.95
2019-05-02T22:37:18.560Z,2.37
2019-05-02T22:39:50.125Z,1.90
2019-05-02T22:42:21.767Z,3.65
2019-05-02T22:44:51.883Z,3.35
2019-05-02T22:47:22.761Z,1.98
2019-05-02T22:49:52.514Z,1.80
2019-05-02T22:52:22.381Z,2.20
2019-05-02T22:54:52.401Z,3.20
2019-05-02T22:57:22.670Z,2.42
2019-05-02T22:59:52.674Z,1.62
2019-05-02T23:02:22.611Z,2.20
2019-05-02T23:04:52.811Z,2.30
2019-05-02T23:07:22.967Z,3.33
2019-05-02T23:09:52.902Z,1.47
2019-05-02T23:12:25.057Z,1.87
2019-05-02T23:14:54.182Z,2.90
2019-05-02T23:17:24.112Z,2.72
2019-05-02T23:19:53.950Z,2.35
2019-05-02T23:22:23.627Z,2.12
2019-05-02T23:24:55.014Z,1.70
2019-05-02T23:27:26.275Z,3.03
2019-05-02T23:29:56.267Z,1.70
2019-05-02T23:32:25.899Z,2.30
2019-05-02T23:34:55.783Z,2.00
2019-05-02T23:37:25.563Z,3.15
2019-05-02T23:39:55.367Z,2.98
2019-05-02T23:42:25.071Z,1.50
2019-05-02T23:44:54.880Z,1.95
2019-05-02T23:47:24.776Z,1.90
2019-05-02T23:49:54.582Z,2.40
2019-05-02T23:52:24.380Z,1.67
2019-05-02T23:54:54.252Z,2.17
2019-05-02T23:57:24.171Z,1.87
2019-05-02T23:59:53.722Z,2.45
